sensor_id;sensor_type;location;lat;lon;timestamp;pressure;altitude;pressure_sealevel;temperature;humidity
54882;BME280;40775;51.448;4.742;2023-08-07T00:02:25;101461.09;;;15.00;100.00
54882;BME280;40775;51.448;4.742;2023-08-07T00:04:52;101460.16;;;14.95;100.00
54882;BME280;40775;51.448;4.742;2023-08-07T00:07:19;101461.88;;;14.90;100.00
54882;BME280;40775;51.448;4.742;2023-08-07T00:09:46;101465.34;;;14.86;100.00
54882;BME280;40775;51.448;4.742;2023-08-07T00:12:13;101471.41;;;14.78;100.00
54882;BME280;40775;51.448;4.742;2023-08-07T00:14:40;101471.34;;;14.74;100.00
54882;BME280;40775;51.448;4.742;2023-08-07T00:17:07;101471.38;;;14.77;100.00
54882;BME280;40775;51.448;4.742;2023-08-07T00:19:35;101457.28;;;14.75;100.00
54882;BME280;40775;51.448;4.742;2023-08-07T00:22:02;101462.56;;;14.75;100.00
54882;BME280;40775;51.448;4.742;2023-08-07T00:24:29;101450.22;;;14.74;100.00
54882;BME280;40775;51.448;4.742;2023-08-07T00:26:56;101446.66;;;14.72;100.00
54882;BME280;40775;51.448;4.742;2023-08-07T00:29:23;101459.06;;;14.79;100.00
54882;BME280;40775;51.448;4.742;2023-08-07T00:31:50;101446.72;;;14.78;100.00
54882;BME280;40775;51.448;4.742;2023-08-07T00:34:18;101446.69;;;14.75;100.00
54882;BME280;40775;51.448;4.742;2023-08-07T00:36:45;101448.41;;;14.71;100.00
54882;BME280;40775;51.448;4.742;2023-08-07T00:39:11;101447.59;;;14.77;100.00
54882;BME280;40775;51.448;4.742;2023-08-07T00:41:38;101452.88;;;14.75;100.00
54882;BME280;40775;51.448;4.742;2023-08-07T00:44:05;101465.19;;;14.75;100.00
54882;BME280;40775;51.448;4.742;2023-08-07T00:46:34;101459.88;;;14.72;100.00
54882;BME280;40775;51.448;4.742;2023-08-07T00:49:02;101461.59;;;14.68;100.00
54882;BME280;40775;51.448;4.742;2023-08-07T00:51:30;101460.78;;;14.74;100.00
54882;BME280;40775;51.448;4.742;2023-08-07T00:53:59;101456.34;;;14.71;100.00
54882;BME280;40775;51.448;4.742;2023-08-07T00:56:27;101474.88;;;14.73;100.00
54882;BME280;40775;51.448;4.742;2023-08-07T00:58:55;101472.19;;;14.71;100.00
54882;BME280;40775;51.448;4.742;2023-08-07T01:01:22;101471.34;;;14.74;100.00
54882;BME280;40775;51.448;4.742;2023-08-07T01:03:49;101476.59;;;14.71;100.00
54882;BME280;40775;51.448;4.742;2023-08-07T01:06:16;101476.59;;;14.71;100.00
54882;BME280;40775;51.448;4.742;2023-08-07T01:08:45;101474.81;;;14.70;100.00
54882;BME280;40775;51.448;4.742;2023-08-07T01:16:57;101495.06;;;14.68;100.00
54882;BME280;40775;51.448;4.742;2023-08-07T01:19:28;101473.91;;;14.66;100.00
54882;BME280;40775;51.448;4.742;2023-08-07T01:24:41;101477.41;;;14.65;100.00
54882;BME280;40775;51.448;4.742;2023-08-07T01:30:11;101489.84;;;14.72;100.00
54882;BME280;40775;51.448;4.742;2023-08-07T01:35:17;101500.28;;;14.63;100.00
54882;BME280;40775;51.448;4.742;2023-08-07T01:37:47;101493.38;;;14.73;100.00
54882;BME280;40775;51.448;4.742;2023-08-07T01:40:15;101487.19;;;14.71;100.00
54882;BME280;40775;51.448;4.742;2023-08-07T01:42:44;101487.97;;;14.65;100.00
54882;BME280;40775;51.448;4.742;2023-08-07T01:45:11;101493.28;;;14.65;100.00
54882;BME280;40775;51.448;4.742;2023-08-07T01:47:38;101478.41;;;14.73;100.00
54882;BME280;40775;51.448;4.742;2023-08-07T01:50:06;101479.25;;;14.72;100.00
54882;BME280;40775;51.448;4.742;2023-08-07T01:52:33;101476.59;;;14.71;100.00
54882;BME280;40775;51.448;4.742;2023-08-07T01:55:00;101477.50;;;14.71;100.00
54882;BME280;40775;51.448;4.742;2023-08-07T01:57:27;101481.00;;;14.70;100.00
54882;BME280;40775;51.448;4.742;2023-08-07T01:59:54;101479.25;;;14.71;100.00
54882;BME280;40775;51.448;4.742;2023-08-07T02:02:21;101488.06;;;14.73;100.00
54882;BME280;40775;51.448;4.742;2023-08-07T02:04:48;101487.13;;;14.68;100.00
54882;BME280;40775;51.448;4.742;2023-08-07T02:07:15;101485.34;;;14.67;100.00
54882;BME280;40775;51.448;4.742;2023-08-07T02:09:42;101483.59;;;14.66;100.00
54882;BME280;40775;51.448;4.742;2023-08-07T02:12:09;101491.50;;;14.66;100.00
54882;BME280;40775;51.448;4.742;2023-08-07T02:14:36;101489.69;;;14.62;100.00
54882;BME280;40775;51.448;4.742;2023-08-07T02:17:03;101490.59;;;14.62;100.00
54882;BME280;40775;51.448;4.742;2023-08-07T02:19:30;101504.69;;;14.63;100.00
54882;BME280;40775;51.448;4.742;2023-08-07T02:21:57;101499.34;;;14.58;100.00
54882;BME280;40775;51.448;4.742;2023-08-07T02:24:24;101502.91;;;14.62;100.00
54882;BME280;40775;51.448;4.742;2023-08-07T02:26:51;101495.97;;;14.70;100.00
54882;BME280;40775;51.448;4.742;2023-08-07T02:29:18;101497.69;;;14.68;100.00
54882;BME280;40775;51.448;4.742;2023-08-07T02:31:45;101496.78;;;14.64;100.00
54882;BME280;40775;51.448;4.742;2023-08-07T02:34:12;101504.66;;;14.61;100.00
54882;BME280;40775;51.448;4.742;2023-08-07T02:36:39;101498.50;;;14.62;100.00
54882;BME280;40775;51.448;4.742;2023-08-07T02:39:07;101494.97;;;14.62;100.00
54882;BME280;40775;51.448;4.742;2023-08-07T02:41:34;101497.63;;;14.62;100.00
54882;BME280;40775;51.448;4.742;2023-08-07T02:44:01;101495.84;;;14.61;100.00
54882;BME280;40775;51.448;4.742;2023-08-07T02:46:28;101490.53;;;14.58;100.00
54882;BME280;40775;51.448;4.742;2023-08-07T02:48:55;101498.47;;;14.59;100.00
54882;BME280;40775;51.448;4.742;2023-08-07T02:51:22;101487.00;;;14.57;100.00
54882;BME280;40775;51.448;4.742;2023-08-07T02:53:48;101482.56;;;14.55;100.00
54882;BME280;40775;51.448;4.742;2023-08-07T02:56:15;101488.63;;;14.50;100.00
54882;BME280;40775;51.448;4.742;2023-08-07T02:58:42;101485.09;;;14.48;100.00
54882;BME280;40775;51.448;4.742;2023-08-07T03:01:09;101483.34;;;14.50;100.00
54882;BME280;40775;51.448;4.742;2023-08-07T03:03:38;101487.81;;;14.53;100.00
54882;BME280;40775;51.448;4.742;2023-08-07T03:06:05;101482.56;;;14.55;100.00
54882;BME280;40775;51.448;4.742;2023-08-07T03:08:32;101484.28;;;14.52;100.00
54882;BME280;40775;51.448;4.742;2023-08-07T03:10:59;101478.06;;;14.50;100.00
54882;BME280;40775;51.448;4.742;2023-08-07T03:13:26;101478.19;;;14.57;100.00
54882;BME280;40775;51.448;4.742;2023-08-07T03:16:05;101471.97;;;14.53;100.00
54882;BME280;40775;51.448;4.742;2023-08-07T03:18:33;101485.06;;;14.47;100.00
54882;BME280;40775;51.448;4.742;2023-08-07T03:21:00;101484.19;;;14.48;100.00
54882;BME280;40775;51.448;4.742;2023-08-07T03:23:28;101477.16;;;14.48;100.00
54882;BME280;40775;51.448;4.742;2023-08-07T03:26:10;101469.22;;;14.48;100.00
54882;BME280;40775;51.448;4.742;2023-08-07T03:28:45;101475.38;;;14.46;100.00
54882;BME280;40775;51.448;4.742;2023-08-07T03:31:17;101481.53;;;14.46;100.00
54882;BME280;40775;51.448;4.742;2023-08-07T03:33:44;101481.50;;;14.43;100.00
54882;BME280;40775;51.448;4.742;2023-08-07T03:36:11;101487.56;;;14.39;100.00
54882;BME280;40775;51.448;4.742;2023-08-07T03:38:38;101479.66;;;14.39;100.00
54882;BME280;40775;51.448;4.742;2023-08-07T03:41:05;101474.41;;;14.42;100.00
54882;BME280;40775;51.448;4.742;2023-08-07T03:43:32;101485.81;;;14.40;100.00
54882;BME280;40775;51.448;4.742;2023-08-07T03:45:59;101482.25;;;14.38;100.00
54882;BME280;40775;51.448;4.742;2023-08-07T03:48:30;101489.25;;;14.33;100.00
54882;BME280;40775;51.448;4.742;2023-08-07T03:51:05;101483.06;;;14.32;100.00
54882;BME280;40775;51.448;4.742;2023-08-07T03:53:34;101483.19;;;14.41;100.00
54882;BME280;40775;51.448;4.742;2023-08-07T03:56:01;101485.78;;;14.38;100.00
54882;BME280;40775;51.448;4.742;2023-08-07T03:58:29;101492.75;;;14.33;100.00
54882;BME280;40775;51.448;4.742;2023-08-07T04:00:56;101495.53;;;14.42;100.00
54882;BME280;40775;51.448;4.742;2023-08-07T04:03:23;101491.94;;;14.37;100.00
54882;BME280;40775;51.448;4.742;2023-08-07T04:05:54;101488.41;;;14.35;100.00
54882;BME280;40775;51.448;4.742;2023-08-07T04:08:23;101489.31;;;14.37;100.00
54882;BME280;40775;51.448;4.742;2023-08-07T04:11:04;101493.69;;;14.35;100.00
54882;BME280;40775;51.448;4.742;2023-08-07T04:13:32;101498.94;;;14.34;100.00
54882;BME280;40775;51.448;4.742;2023-08-07T04:15:59;101501.66;;;14.40;100.00
54882;BME280;40775;51.448;4.742;2023-08-07T04:18:28;101509.63;;;14.41;100.00
54882;BME280;40775;51.448;4.742;2023-08-07T04:21:02;101509.59;;;14.40;100.00
54882;BME280;40775;51.448;4.742;2023-08-07T04:23:29;101519.38;;;14.44;100.00
54882;BME280;40775;51.448;4.742;2023-08-07T04:25:59;101513.13;;;14.40;100.00
54882;BME280;40775;51.448;4.742;2023-08-07T04:28:28;101521.03;;;14.39;100.00
54882;BME280;40775;51.448;4.742;2023-08-07T04:30:56;101515.78;;;14.42;100.00
54882;BME280;40775;51.448;4.742;2023-08-07T04:33:23;101509.56;;;14.38;100.00
54882;BME280;40775;51.448;4.742;2023-08-07T04:35:50;101517.47;;;14.37;100.00
54882;BME280;40775;51.448;4.742;2023-08-07T04:38:17;101516.59;;;14.38;100.00
54882;BME280;40775;51.448;4.742;2023-08-07T04:40:49;101517.50;;;14.38;100.00
54882;BME280;40775;51.448;4.742;2023-08-07T04:43:18;101518.34;;;14.37;100.00
54882;BME280;40775;51.448;4.742;2023-08-07T04:45:46;101517.50;;;14.38;100.00
54882;BME280;40775;51.448;4.742;2023-08-07T04:48:14;101519.22;;;14.36;100.00
54882;BME280;40775;51.448;4.742;2023-08-07T04:50:42;101519.28;;;14.39;100.00
54882;BME280;40775;51.448;4.742;2023-08-07T04:53:09;101520.19;;;14.41;100.00
54882;BME280;40775;51.448;4.742;2023-08-07T04:55:36;101518.47;;;14.43;100.00
54882;BME280;40775;51.448;4.742;2023-08-07T04:58:03;101522.03;;;14.45;100.00
54882;BME280;40775;51.448;4.742;2023-08-07T05:00:30;101524.66;;;14.44;100.00
54882;BME280;40775;51.448;4.742;2023-08-07T05:02:57;101532.66;;;14.50;100.00
54882;BME280;40775;51.448;4.742;2023-08-07T05:05:25;101522.06;;;14.48;100.00
54882;BME280;40775;51.448;4.742;2023-08-07T05:07:54;101532.69;;;14.51;100.00
54882;BME280;40775;51.448;4.742;2023-08-07T05:10:21;101525.63;;;14.50;100.00
54882;BME280;40775;51.448;4.742;2023-08-07T05:12:48;101531.88;;;14.54;100.00
54882;BME280;40775;51.448;4.742;2023-08-07T05:15:25;101530.09;;;14.53;100.00
54882;BME280;40775;51.448;4.742;2023-08-07T05:17:52;101528.34;;;14.53;100.00
54882;BME280;40775;51.448;4.742;2023-08-07T05:20:20;101529.22;;;14.52;100.00
54882;BME280;40775;51.448;4.742;2023-08-07T05:22:47;101530.97;;;14.52;100.00
54882;BME280;40775;51.448;4.742;2023-08-07T05:25:15;101529.34;;;14.62;100.00
54882;BME280;40775;51.448;4.742;2023-08-07T05:27:43;101540.84;;;14.65;100.00
54882;BME280;40775;51.448;4.742;2023-08-07T05:30:11;101535.59;;;14.68;100.00
54882;BME280;40775;51.448;4.742;2023-08-07T05:32:38;101535.59;;;14.68;100.00
54882;BME280;40775;51.448;4.742;2023-08-07T05:35:07;101537.34;;;14.68;100.00
54882;BME280;40775;51.448;4.742;2023-08-07T05:37:34;101536.53;;;14.72;100.00
54882;BME280;40775;51.448;4.742;2023-08-07T05:40:03;101538.28;;;14.71;100.00
54882;BME280;40775;51.448;4.742;2023-08-07T05:42:30;101539.16;;;14.72;100.00
54882;BME280;40775;51.448;4.742;2023-08-07T05:44:58;101533.84;;;14.70;100.00
54882;BME280;40775;51.448;4.742;2023-08-07T05:47:25;101562.63;;;15.84;100.00
54882;BME280;40775;51.448;4.742;2023-08-07T05:49:52;101557.81;;;16.35;100.00
54882;BME280;40775;51.448;4.742;2023-08-07T05:52:19;101543.16;;;16.79;100.00
54882;BME280;40775;51.448;4.742;2023-08-07T05:54:47;101546.09;;;17.41;100.00
54882;BME280;40775;51.448;4.742;2023-08-07T05:57:14;101541.59;;;17.23;100.00
54882;BME280;40775;51.448;4.742;2023-08-07T05:59:41;101540.94;;;17.85;100.00
54882;BME280;40775;51.448;4.742;2023-08-07T06:02:08;101538.28;;;18.05;100.00
54882;BME280;40775;51.448;4.742;2023-08-07T06:04:37;101546.25;;;18.33;100.00
54882;BME280;40775;51.448;4.742;2023-08-07T06:07:05;101540.06;;;18.21;100.00
54882;BME280;40775;51.448;4.742;2023-08-07T06:09:32;101540.94;;;17.84;100.00
54882;BME280;40775;51.448;4.742;2023-08-07T06:12:00;101547.13;;;17.87;100.00
54882;BME280;40775;51.448;4.742;2023-08-07T06:14:27;101556.00;;;17.88;100.00
54882;BME280;40775;51.448;4.742;2023-08-07T06:16:55;101556.84;;;17.75;100.00
54882;BME280;40775;51.448;4.742;2023-08-07T06:19:24;101547.97;;;17.76;100.00
54882;BME280;40775;51.448;4.742;2023-08-07T06:21:58;101554.06;;;17.43;100.00
54882;BME280;40775;51.448;4.742;2023-08-07T06:24:26;101550.63;;;17.76;100.00
54882;BME280;40775;51.448;4.742;2023-08-07T06:26:54;101545.38;;;17.85;100.00
54882;BME280;40775;51.448;4.742;2023-08-07T06:29:21;101546.28;;;18.17;100.00
54882;BME280;40775;51.448;4.742;2023-08-07T06:31:48;101547.94;;;17.67;100.00
54882;BME280;40775;51.448;4.742;2023-08-07T06:34:15;101559.34;;;17.37;100.00
54882;BME280;40775;51.448;4.742;2023-08-07T06:36:42;101551.56;;;17.93;100.00
54882;BME280;40775;51.448;4.742;2023-08-07T06:39:09;101560.47;;;18.38;100.00
54882;BME280;40775;51.448;4.742;2023-08-07T06:41:37;101564.91;;;18.63;100.00
54882;BME280;40775;51.448;4.742;2023-08-07T06:44:04;101567.50;;;18.60;100.00
54882;BME280;40775;51.448;4.742;2023-08-07T06:46:32;101567.56;;;18.63;100.00
54882;BME280;40775;51.448;4.742;2023-08-07T06:48:59;101568.44;;;18.41;100.00
54882;BME280;40775;51.448;4.742;2023-08-07T06:51:26;101551.56;;;18.02;100.00
54882;BME280;40775;51.448;4.742;2023-08-07T06:53:53;101560.25;;;17.40;100.00
54882;BME280;40775;51.448;4.742;2023-08-07T06:56:20;101535.78;;;16.43;100.00
54882;BME280;40775;51.448;4.742;2023-08-07T06:58:47;101559.88;;;15.71;100.00
54882;BME280;40775;51.448;4.742;2023-08-07T07:01:14;101567.84;;;15.74;100.00
54882;BME280;40775;51.448;4.742;2023-08-07T07:03:41;101567.00;;;15.79;100.00
54882;BME280;40775;51.448;4.742;2023-08-07T07:06:08;101577.72;;;15.91;100.00
54882;BME280;40775;51.448;4.742;2023-08-07T07:08:35;101573.41;;;15.99;100.00
54882;BME280;40775;51.448;4.742;2023-08-07T07:11:02;101571.66;;;16.04;100.00
54882;BME280;40775;51.448;4.742;2023-08-07T07:13:31;101569.06;;;16.08;100.00
54882;BME280;40775;51.448;4.742;2023-08-07T07:15:58;101559.41;;;16.15;100.00
54882;BME280;40775;51.448;4.742;2023-08-07T07:18:25;101575.41;;;16.24;100.00
54882;BME280;40775;51.448;4.742;2023-08-07T07:20:57;101566.59;;;16.28;100.00
54882;BME280;40775;51.448;4.742;2023-08-07T07:23:25;101569.28;;;16.31;100.00
54882;BME280;40775;51.448;4.742;2023-08-07T07:25:52;101557.84;;;16.38;100.00
54882;BME280;40775;51.448;4.742;2023-08-07T07:28:20;101563.25;;;16.54;100.00
54882;BME280;40775;51.448;4.742;2023-08-07T07:30:47;101561.50;;;16.56;100.00
54882;BME280;40775;51.448;4.742;2023-08-07T07:33:14;101565.09;;;16.64;100.00
54882;BME280;40775;51.448;4.742;2023-08-07T07:35:41;101569.63;;;16.74;100.00
54882;BME280;40775;51.448;4.742;2023-08-07T07:38:08;101568.81;;;16.84;100.00
54882;BME280;40775;51.448;4.742;2023-08-07T07:40:35;101567.94;;;16.85;100.00
54882;BME280;40775;51.448;4.742;2023-08-07T07:43:03;101567.97;;;16.94;100.00
54882;BME280;40775;51.448;4.742;2023-08-07T07:45:30;101576.03;;;17.13;100.00
54882;BME280;40775;51.448;4.742;2023-08-07T07:47:57;101586.69;;;17.19;100.00
54882;BME280;40775;51.448;4.742;2023-08-07T07:50:24;101580.56;;;17.30;100.00
54882;BME280;40775;51.448;4.742;2023-08-07T07:52:51;101597.44;;;17.46;100.00
54882;BME280;40775;51.448;4.742;2023-08-07T07:55:18;101588.53;;;17.35;100.00
54882;BME280;40775;51.448;4.742;2023-08-07T07:57:45;101588.53;;;17.32;100.00
54882;BME280;40775;51.448;4.742;2023-08-07T08:00:13;101583.25;;;17.46;100.00
54882;BME280;40775;51.448;4.742;2023-08-07T08:02:40;101578.03;;;17.58;100.00
54882;BME280;40775;51.448;4.742;2023-08-07T08:05:10;101584.22;;;17.61;100.00
54882;BME280;40775;51.448;4.742;2023-08-07T08:07:39;101570.13;;;17.73;100.00
54882;BME280;40775;51.448;4.742;2023-08-07T08:10:08;101577.19;;;17.74;100.00
54882;BME280;40775;51.448;4.742;2023-08-07T08:12:36;101588.75;;;17.96;100.00
54882;BME280;40775;51.448;4.742;2023-08-07T08:15:04;101585.25;;;18.18;100.00
54882;BME280;40775;51.448;4.742;2023-08-07T08:17:32;101587.06;;;18.36;100.00
54882;BME280;40775;51.448;4.742;2023-08-07T08:19:59;101588.81;;;18.11;100.00
54882;BME280;40775;51.448;4.742;2023-08-07T08:22:26;101591.44;;;18.25;100.00
54882;BME280;40775;51.448;4.742;2023-08-07T08:24:53;101597.66;;;18.24;100.00
54882;BME280;40775;51.448;4.742;2023-08-07T08:27:20;101610.09;;;18.40;100.00
54882;BME280;40775;51.448;4.742;2023-08-07T08:29:48;101604.78;;;18.71;100.00
54882;BME280;40775;51.448;4.742;2023-08-07T08:32:15;101600.38;;;18.67;100.00
54882;BME280;40775;51.448;4.742;2023-08-07T08:34:42;101603.00;;;18.77;100.00
54882;BME280;40775;51.448;4.742;2023-08-07T08:37:09;101602.09;;;18.98;100.00
54882;BME280;40775;51.448;4.742;2023-08-07T08:39:38;101599.44;;;18.81;100.00
54882;BME280;40775;51.448;4.742;2023-08-07T08:42:05;101612.75;;;18.77;100.00
54882;BME280;40775;51.448;4.742;2023-08-07T08:44:36;101618.09;;;18.71;100.00
54882;BME280;40775;51.448;4.742;2023-08-07T08:47:07;101627.84;;;18.73;100.00
54882;BME280;40775;51.448;4.742;2023-08-07T08:49:43;101620.72;;;18.88;100.00
54882;BME280;40775;51.448;4.742;2023-08-07T08:52:13;101627.81;;;18.98;100.00
54882;BME280;40775;51.448;4.742;2023-08-07T08:54:40;101626.81;;;19.34;100.00
54882;BME280;40775;51.448;4.742;2023-08-07T08:57:08;101621.53;;;19.23;100.00
54882;BME280;40775;51.448;4.742;2023-08-07T08:59:36;101625.06;;;19.33;100.00
54882;BME280;40775;51.448;4.742;2023-08-07T09:02:04;101610.00;;;19.27;100.00
54882;BME280;40775;51.448;4.742;2023-08-07T09:04:31;101619.78;;;19.22;100.00
54882;BME280;40775;51.448;4.742;2023-08-07T09:06:58;101624.22;;;19.14;100.00
54882;BME280;40775;51.448;4.742;2023-08-07T09:09:26;101627.69;;;19.47;100.00
54882;BME280;40775;51.448;4.742;2023-08-07T09:11:55;101627.69;;;19.56;100.00
54882;BME280;40775;51.448;4.742;2023-08-07T09:14:27;101628.56;;;19.44;100.00
54882;BME280;40775;51.448;4.742;2023-08-07T09:16:59;101625.84;;;19.67;100.00
54882;BME280;40775;51.448;4.742;2023-08-07T09:19:27;101629.38;;;19.73;100.00
54882;BME280;40775;51.448;4.742;2023-08-07T09:21:55;101625.00;;;19.60;100.00
54882;BME280;40775;51.448;4.742;2023-08-07T09:24:22;101635.59;;;19.69;100.00
54882;BME280;40775;51.448;4.742;2023-08-07T09:26:51;101636.47;;;19.74;100.00
54882;BME280;40775;51.448;4.742;2023-08-07T09:29:21;101641.81;;;19.70;100.00
54882;BME280;40775;51.448;4.742;2023-08-07T09:31:49;101634.75;;;19.60;100.00
54882;BME280;40775;51.448;4.742;2023-08-07T09:34:19;101649.00;;;19.54;100.00
54882;BME280;40775;51.448;4.742;2023-08-07T09:36:47;101654.31;;;19.47;100.00
54882;BME280;40775;51.448;4.742;2023-08-07T09:39:14;101649.78;;;19.81;100.00
54882;BME280;40775;51.448;4.742;2023-08-07T09:41:41;101647.94;;;19.87;100.00
54882;BME280;40775;51.448;4.742;2023-08-07T09:44:10;101651.34;;;20.15;100.00
54882;BME280;40775;51.448;4.742;2023-08-07T09:46:44;101659.50;;;19.85;100.00
54882;BME280;40775;51.448;4.742;2023-08-07T09:49:12;101663.13;;;19.74;100.00
54882;BME280;40775;51.448;4.742;2023-08-07T09:51:47;101672.00;;;19.72;100.00
54882;BME280;40775;51.448;4.742;2023-08-07T09:54:14;101663.16;;;19.59;100.00
54882;BME280;40775;51.448;4.742;2023-08-07T09:56:41;101675.59;;;19.59;100.00
54882;BME280;40775;51.448;4.742;2023-08-07T09:59:08;101686.28;;;19.57;100.00
54882;BME280;40775;51.448;4.742;2023-08-07T10:01:38;101674.72;;;19.57;100.00
54882;BME280;40775;51.448;4.742;2023-08-07T10:04:07;101674.72;;;19.55;100.00
54882;BME280;40775;51.448;4.742;2023-08-07T10:06:34;101681.84;;;19.53;100.00
54882;BME280;40775;51.448;4.742;2023-08-07T10:09:02;101686.28;;;19.50;100.00
54882;BME280;40775;51.448;4.742;2023-08-07T10:11:30;101675.63;;;19.47;100.00
54882;BME280;40775;51.448;4.742;2023-08-07T10:13:58;101684.50;;;19.45;100.00
54882;BME280;40775;51.448;4.742;2023-08-07T10:16:26;101682.72;;;19.54;100.00
54882;BME280;40775;51.448;4.742;2023-08-07T10:18:56;101685.38;;;19.60;100.00
54882;BME280;40775;51.448;4.742;2023-08-07T10:21:24;101680.06;;;19.57;100.00
54882;BME280;40775;51.448;4.742;2023-08-07T10:23:53;101690.72;;;19.46;100.00
54882;BME280;40775;51.448;4.742;2023-08-07T10:26:23;101680.03;;;19.61;100.00
54882;BME280;40775;51.448;4.742;2023-08-07T10:28:52;101701.38;;;19.46;100.00
54882;BME280;40775;51.448;4.742;2023-08-07T10:31:21;101689.78;;;19.62;100.00
54882;BME280;40775;51.448;4.742;2023-08-07T10:33:49;101684.50;;;19.45;100.00
54882;BME280;40775;51.448;4.742;2023-08-07T10:36:19;101690.69;;;19.52;100.00
54882;BME280;40775;51.448;4.742;2023-08-07T10:38:49;101676.53;;;19.53;100.00
54882;BME280;40775;51.448;4.742;2023-08-07T10:41:18;101681.66;;;19.97;100.00
54882;BME280;40775;51.448;4.742;2023-08-07T10:43:46;101667.28;;;20.23;100.00
54882;BME280;40775;51.448;4.742;2023-08-07T10:46:19;101675.47;;;19.92;100.00
54882;BME280;40775;51.448;4.742;2023-08-07T10:48:59;101661.22;;;19.98;100.00
54882;BME280;40775;51.448;4.742;2023-08-07T10:51:30;101669.03;;;20.27;100.00
54882;BME280;40775;51.448;4.742;2023-08-07T10:54:01;101645.91;;;20.33;100.00
54882;BME280;40775;51.448;4.742;2023-08-07T10:56:36;101652.97;;;20.42;100.00
54882;BME280;40775;51.448;4.742;2023-08-07T10:59:11;101652.16;;;20.29;100.00
54882;BME280;40775;51.448;4.742;2023-08-07T11:04:12;101663.25;;;20.91;100.00
54882;BME280;40775;51.448;4.742;2023-08-07T11:06:41;101654.47;;;20.77;100.00
54882;BME280;40775;51.448;4.742;2023-08-07T11:09:10;101659.94;;;20.63;100.00
54882;BME280;40775;51.448;4.742;2023-08-07T11:11:43;101654.47;;;20.77;100.00
54882;BME280;40775;51.448;4.742;2023-08-07T11:14:16;101661.56;;;20.82;100.00
54882;BME280;40775;51.448;4.742;2023-08-07T11:16:45;101669.59;;;20.75;100.00
54882;BME280;40775;51.448;4.742;2023-08-07T11:19:15;101662.09;;;21.18;100.00
54882;BME280;40775;51.448;4.742;2023-08-07T11:21:43;101665.00;;;20.93;100.00
54882;BME280;40775;51.448;4.742;2023-08-07T11:24:13;101679.72;;;21.36;100.00
54882;BME280;40775;51.448;4.742;2023-08-07T11:26:44;101660.13;;;21.35;100.00
54882;BME280;40775;51.448;4.742;2023-08-07T11:29:18;101667.22;;;21.41;100.00
54882;BME280;40775;51.448;4.742;2023-08-07T11:31:46;101664.75;;;21.19;100.00
54882;BME280;40775;51.448;4.742;2023-08-07T11:34:13;101664.06;;;20.99;100.00
54882;BME280;40775;51.448;4.742;2023-08-07T11:36:43;101668.91;;;21.48;100.00
54882;BME280;40775;51.448;4.742;2023-08-07T11:39:12;101670.91;;;21.29;100.00
54882;BME280;40775;51.448;4.742;2023-08-07T11:41:40;101663.53;;;20.59;100.00
54882;BME280;40775;51.448;4.742;2023-08-07T11:44:10;101673.06;;;20.89;100.00
54882;BME280;40775;51.448;4.742;2023-08-07T11:46:38;101659.53;;;21.04;100.00
54882;BME280;40775;51.448;4.742;2023-08-07T11:49:05;101653.84;;;21.42;100.00
54882;BME280;40775;51.448;4.742;2023-08-07T11:51:32;101662.13;;;21.15;100.00
54882;BME280;40775;51.448;4.742;2023-08-07T11:54:00;101663.84;;;21.23;100.00
54882;BME280;40775;51.448;4.742;2023-08-07T11:56:28;101652.16;;;21.32;100.00
54882;BME280;40775;51.448;4.742;2023-08-07T11:58:56;101656.53;;;21.41;100.00
54882;BME280;40775;51.448;4.742;2023-08-07T12:01:25;101656.81;;;21.13;100.00
54882;BME280;40775;51.448;4.742;2023-08-07T12:04:09;101662.13;;;21.16;100.00
54882;BME280;40775;51.448;4.742;2023-08-07T12:06:36;101668.44;;;21.05;100.00
54882;BME280;40775;51.448;4.742;2023-08-07T12:09:06;101656.69;;;21.27;100.00
54882;BME280;40775;51.448;4.742;2023-08-07T12:11:39;101662.63;;;21.52;100.00
54882;BME280;40775;51.448;4.742;2023-08-07T12:14:06;101654.59;;;21.53;100.00
54882;BME280;40775;51.448;4.742;2023-08-07T12:16:34;101657.16;;;21.64;100.00
54882;BME280;40775;51.448;4.742;2023-08-07T12:19:03;101650.31;;;22.09;100.00
54882;BME280;40775;51.448;4.742;2023-08-07T12:21:30;101649.06;;;21.69;100.00
54882;BME280;40775;51.448;4.742;2023-08-07T12:24:00;101657.13;;;21.67;100.00
54882;BME280;40775;51.448;4.742;2023-08-07T12:26:27;101663.28;;;21.72;100.00
54882;BME280;40775;51.448;4.742;2023-08-07T12:28:54;101654.44;;;21.67;100.00
54882;BME280;40775;51.448;4.742;2023-08-07T12:31:21;101652.06;;;21.43;100.00
54882;BME280;40775;51.448;4.742;2023-08-07T12:33:48;101658.31;;;21.42;100.00
54882;BME280;40775;51.448;4.742;2023-08-07T12:36:16;101650.03;;;22.31;100.00
54882;BME280;40775;51.448;4.742;2023-08-07T12:38:46;101657.81;;;21.81;100.00
54882;BME280;40775;51.448;4.742;2023-08-07T12:41:13;101650.31;;;22.11;100.00
54882;BME280;40775;51.448;4.742;2023-08-07T12:43:44;101648.53;;;22.10;100.00
54882;BME280;40775;51.448;4.742;2023-08-07T12:46:11;101639.97;;;22.46;100.00
54882;BME280;40775;51.448;4.742;2023-08-07T12:48:40;101655.84;;;21.97;100.00
54882;BME280;40775;51.448;4.742;2023-08-07T12:51:07;101660.41;;;21.87;100.00
54882;BME280;40775;51.448;4.742;2023-08-07T12:53:34;101654.31;;;22.41;100.00
54882;BME280;40775;51.448;4.742;2023-08-07T12:56:01;101646.50;;;22.27;100.00
54882;BME280;40775;51.448;4.742;2023-08-07T12:58:30;101647.56;;;22.14;100.00
54882;BME280;40775;51.448;4.742;2023-08-07T13:00:57;101642.38;;;22.05;100.00
54882;BME280;40775;51.448;4.742;2023-08-07T13:03:24;101648.88;;;22.45;100.00